Flight Track Log - Related Links

Times and Time Zones

All times are in EDT time to prevent confusion due to time zone crossing. See the C-FRLW flight status page for this flight to view local times or setup timezone preferences in your user account.

Time Position Orientation Groundspeed Altitude Reporting Facility
EDT Latitude Longitude Course Direction KTS MPH feet Rate Location/Type
Tue 01:58:45 PM 49.8833 -97.2333 278° West 40 46 1,000  Level Winnipeg Center
Tue 01:59:45 PM 49.8500 -97.2500 198° South 110 127 1,800 843 Climbing Winnipeg Center
Tue 02:00:46 PM 49.8500 -97.2833 270° West 110 127 2,700 900 Climbing Winnipeg Center
Tue 02:01:45 PM 49.8500 -97.3333 270° West 120 138 3,600 958 Climbing Winnipeg Center
Tue 02:02:45 PM 49.8667 -97.3833 297° West 110 127 4,600 800 Climbing Winnipeg Center
Tue 02:03:45 PM 49.8833 -97.4333 297° West 130 150 5,200 750 Climbing Winnipeg Center
Tue 02:04:00 PM 49.9609 -97.7385 279° West  Level Estimated
Tue 02:04:45 PM 49.8833 -97.4833 270° West 130 150 6,100  Level Winnipeg Center
Tue 02:05:00 PM 49.9670 -97.8108 278° West  Level FlightAware Approximate
Tue 02:05:46 PM 49.9000 -97.5333 297° West 130 150 7,000  Level Winnipeg Center
Tue 02:06:45 PM 49.9167 -97.5833 297° West 130 150 7,800 857 Climbing Winnipeg Center
Tue 02:07:45 PM 49.9167 -97.6333 270° West 130 150 8,700 800 Climbing Winnipeg Center
Tue 02:08:45 PM 49.9333 -97.7000 291° West 130 150 9,400 700 Climbing Winnipeg Center
Tue 02:09:45 PM 49.9333 -97.7500 270° West 140 161 10,100 300 Climbing Winnipeg Center
Tue 02:10:45 PM 49.9500 -97.8167 291° West 160 184 10,000 -50 Descending Winnipeg Center
Tue 02:11:45 PM 49.9500 -97.9000 270° West 170 196 10,000  Level Winnipeg Center
Tue 02:12:45 PM 49.9500 -97.9833 270° West 170 196 10,000  Level Winnipeg Center
Tue 02:13:45 PM 49.9500 -98.0500 270° West 170 196 10,000  Level Winnipeg Center
Tue 02:14:45 PM 49.9500 -98.1167 270° West 180 207 10,000  Level Winnipeg Center
Tue 02:15:45 PM 49.9667 -98.1833 291° West 180 207 10,000  Level Winnipeg Center
Tue 02:16:46 PM 49.9667 -98.2667 270° West 180 207 10,000  Level Winnipeg Center
Tue 02:17:45 PM 49.9833 -98.3500 287° West 180 207 10,000  Level Winnipeg Center
Tue 02:18:45 PM 49.9833 -98.4167 270° West 180 207 10,000  Level Winnipeg Center
Tue 02:19:45 PM 50.0000 -98.5000 287° West 180 207 10,000  Level Winnipeg Center
Tue 02:20:45 PM 50.0000 -98.5833 270° West 180 207 10,000  Level Winnipeg Center
Tue 02:21:46 PM 50.0167 -98.6500 291° West 180 207 10,000  Level Winnipeg Center
Tue 02:22:45 PM 50.0333 -98.7333 287° West 180 207 10,000  Level Winnipeg Center
Tue 02:23:45 PM 50.0333 -98.8167 270° West 180 207 10,000  Level Winnipeg Center
Tue 02:24:45 PM 50.0500 -98.8667 297° West 180 207 10,000  Level Winnipeg Center
Tue 02:25:45 PM 50.0500 -98.9500 270° West 180 207 10,000  Level Winnipeg Center
Tue 02:26:46 PM 50.0667 -99.0167 291° West 180 207 10,000  Level Winnipeg Center
Tue 02:27:45 PM 50.0833 -99.1000 287° West 180 207 10,000  Level Winnipeg Center
Tue 02:28:45 PM 50.0833 -99.1833 270° West 180 207 10,000  Level Winnipeg Center
Tue 02:29:45 PM 50.0833 -99.2667 270° West 180 207 10,000  Level Winnipeg Center
Tue 02:30:45 PM 50.0833 -99.3333 270° West 170 196 10,000  Level Winnipeg Center
Tue 02:31:45 PM 50.1000 -99.4167 287° West 170 196 10,000  Level Winnipeg Center
Tue 02:32:45 PM 50.1000 -99.4667 270° West 170 196 10,000  Level Winnipeg Center
Tue 02:33:45 PM 50.1167 -99.5500 287° West 170 196 10,000  Level Winnipeg Center
Tue 02:34:45 PM 50.1167 -99.6333 270° West 170 196 10,000  Level Winnipeg Center
Tue 02:35:45 PM 50.1333 -99.7000 291° West 170 196 10,000  Level Winnipeg Center
Tue 02:36:45 PM 50.1333 -99.7833 270° West 170 196 10,000  Level Winnipeg Center
Tue 02:37:46 PM 50.1500 -99.8667 287° West 170 196 10,000  Level Winnipeg Center
Tue 02:38:46 PM 50.1500 -99.9167 270° West 170 196 10,000  Level Winnipeg Center
Tue 02:39:45 PM 50.1500 -100.0000 270° West 160 184 10,000  Level Winnipeg Center
Tue 02:40:45 PM 50.1500 -100.0667 270° West 160 184 10,000  Level Winnipeg Center
Tue 02:41:46 PM 50.1500 -100.1333 270° West 160 184 10,000  Level Winnipeg Center
Tue 02:42:45 PM 50.1667 -100.2000 291° West 160 184 10,000  Level Winnipeg Center
Tue 02:43:45 PM 50.1667 -100.2833 270° West 160 184 10,000  Level Winnipeg Center
Tue 02:44:45 PM 50.1667 -100.3667 270° West 160 184 10,000  Level Winnipeg Center
Tue 02:45:46 PM 50.1833 -100.4167 298° West 160 184 10,000  Level Winnipeg Center
Tue 02:46:46 PM 50.1833 -100.5000 270° West 160 184 10,000  Level Winnipeg Center
Tue 02:47:46 PM 50.1667 -100.5667 249° West 160 184 10,000  Level Winnipeg Center
Tue 02:48:46 PM 50.1833 -100.6333 291° West 160 184 10,000  Level Winnipeg Center
Tue 02:49:46 PM 50.1833 -100.7000 270° West 160 184 10,000  Level Winnipeg Center
Tue 02:50:46 PM 50.2000 -100.7500 298° West 160 184 10,000  Level Winnipeg Center
Tue 02:51:46 PM 50.2000 -100.8333 270° West 160 184 10,000  Level Winnipeg Center
Tue 02:52:46 PM 50.2000 -100.8833 270° West 160 184 10,000  Level Winnipeg Center
Tue 02:53:46 PM 50.2167 -100.9667 287° West 150 173 10,000  Level Winnipeg Center
Tue 02:54:46 PM 50.2333 -101.0167 298° West 150 173 10,000  Level Winnipeg Center
Tue 02:55:46 PM 50.2167 -101.1000 253° West 150 173 10,000  Level Winnipeg Center
Tue 02:56:46 PM 50.2333 -101.1500 298° West 150 173 10,000  Level Winnipeg Center
Tue 02:57:46 PM 50.2333 -101.2333 270° West 150 173 10,000  Level Winnipeg Center
Tue 02:58:46 PM 50.2500 -101.3167 287° West 160 184 10,000  Level Winnipeg Center
Tue 02:59:46 PM 50.2500 -101.3667 270° West 160 184 10,000  Level Winnipeg Center
Tue 03:00:46 PM 50.2667 -101.4167 298° West 160 184 10,000  Level Winnipeg Center
Tue 03:01:46 PM 50.2667 -101.5000 270° West 150 173 10,000  Level Winnipeg Center
Tue 03:02:46 PM 50.2667 -101.5500 270° West 150 173 10,000  Level Winnipeg Center
Tue 03:03:46 PM 50.2667 -101.6333 270° West 150 173 10,000  Level Winnipeg Center
Tue 03:06:00 PM 50.2723 -101.7162 276° West  Level FlightAware Approximate
Tue 03:09:47 PM 50.2833 -102.0000 276° West 140 161 10,000  Level Winnipeg Center
Tue 03:10:47 PM 50.3000 -102.0500 298° West 140 161 10,000  Level Winnipeg Center
Tue 03:11:47 PM 50.3000 -102.1000 270° West 140 161 10,000  Level Winnipeg Center
Tue 03:12:47 PM 50.3000 -102.1500 270° West 150 173 10,000  Level Winnipeg Center
Tue 03:13:00 PM 50.3032 -102.1867 276° West  Level FlightAware Approximate
Tue 03:13:47 PM 50.3167 -102.2333 287° West 150 173 10,000  Level Winnipeg Center
Tue 03:14:00 PM 50.3074 -102.2539 276° West  Level FlightAware Approximate
Tue 03:14:47 PM 50.3000 -102.3167 253° West 150 173 10,000  Level Winnipeg Center
Tue 03:15:00 PM 50.3116 -102.3212 276° West  Level FlightAware Approximate
Tue 03:15:47 PM 50.3167 -102.3667 298° West 160 184 10,000  Level Winnipeg Center
Tue 03:16:47 PM 50.3167 -102.4500 270° West 160 184 10,000  Level Winnipeg Center
Tue 03:17:47 PM 50.3167 -102.5000 270° West 150 173 10,000  Level Winnipeg Center
Tue 03:18:47 PM 50.3333 -102.5833 287° West 160 184 10,000  Level Winnipeg Center
Tue 03:19:47 PM 50.3333 -102.6333 270° West 160 184 10,000  Level Winnipeg Center
Tue 03:20:47 PM 50.3333 -102.7167 270° West 160 184 10,000  Level Winnipeg Center
Tue 03:21:47 PM 50.3333 -102.7833 270° West 160 184 10,000  Level Winnipeg Center
Tue 03:22:47 PM 50.3500 -102.8500 291° West 160 184 10,000  Level Winnipeg Center
Tue 03:23:47 PM 50.3500 -102.9167 270° West 160 184 10,000  Level Winnipeg Center
Tue 03:24:47 PM 50.3333 -103.0000 253° West 160 184 10,000  Level Winnipeg Center
Tue 03:25:47 PM 50.3333 -103.0500 270° West 160 184 10,000  Level Winnipeg Center
Tue 03:26:47 PM 50.3500 -103.1333 287° West 160 184 10,000  Level Winnipeg Center
Tue 03:27:47 PM 50.3500 -103.2167 270° West 160 184 10,000  Level Winnipeg Center
Tue 03:28:47 PM 50.3667 -103.2667 298° West 160 184 10,000  Level Winnipeg Center
Tue 03:29:47 PM 50.3500 -103.3500 253° West 160 184 10,000  Level Winnipeg Center
Tue 03:30:47 PM 50.3500 -103.4000 270° West 160 184 10,000  Level Winnipeg Center
Tue 03:31:47 PM 50.3667 -103.4833 287° West 160 184 10,000  Level Winnipeg Center
Tue 03:32:47 PM 50.3667 -103.5500 270° West 160 184 10,000  Level Winnipeg Center
Tue 03:33:47 PM 50.3500 -103.6000 242° Southwest 160 184 10,000 -50 Level Winnipeg Center
Tue 03:34:47 PM 50.3667 -103.6833 287° West 160 184 9,900 -300 Descending Winnipeg Center
Tue 03:35:47 PM 50.3667 -103.7667 270° West 170 196 9,400 -500 Descending Winnipeg Center
Tue 03:36:47 PM 50.3667 -103.8500 270° West 180 207 8,900 -500 Descending Winnipeg Center
Tue 03:37:47 PM 50.3667 -103.9167 270° West 180 207 8,400 -500 Descending Winnipeg Center
Tue 03:38:47 PM 50.3833 -104.0000 287° West 180 207 7,900 -550 Descending Winnipeg Center
Tue 03:39:47 PM 50.3833 -104.0833 270° West 180 207 7,300 -650 Descending Winnipeg Center
Tue 03:40:47 PM 50.4000 -104.1333 298° West 180 207 6,600 -600 Descending Winnipeg Center
Tue 03:41:47 PM 50.3833 -104.2167 253° West 180 207 6,100 -500 Descending Winnipeg Center
Tue 03:42:47 PM 50.4000 -104.3000 287° West 180 207 5,600 -550 Descending Winnipeg Center
Tue 03:43:47 PM 50.4000 -104.3833 270° West 170 196 5,000 -600 Descending Winnipeg Center
Tue 03:44:47 PM 50.4000 -104.4500 270° West 170 196 4,400 -550 Descending Winnipeg Center
Tue 03:45:47 PM 50.4000 -104.5333 270° West 160 184 3,900 -550 Descending Winnipeg Center
Tue 03:46:47 PM 50.4167 -104.5833 298° West 140 161 3,300 -650 Descending Winnipeg Center
Tue 03:47:47 PM 50.4167 -104.6500 270° West 100 115 2,600 -600 Descending Winnipeg Center
Tue 03:48:47 PM 50.4000 -104.6667 213° Southwest 80 92 2,100 -500 Descending Winnipeg Center

Login

Don't have an account? Register now (free) for customized features, flight alerts, and more!